sensor_id;sensor_type;location;lat;lon;timestamp;pressure;altitude;pressure_sealevel;temperature;humidity
37298;BME280;30517;51.932;4.278;2023-04-16T00:02:33;102393.63;;;13.87;55.98
37298;BME280;30517;51.932;4.278;2023-04-16T00:05:14;102348.31;;;13.59;56.45
37298;BME280;30517;51.932;4.278;2023-04-16T00:07:55;102375.78;;;13.70;56.48
37298;BME280;30517;51.932;4.278;2023-04-16T00:10:36;102293.13;;;13.21;56.34
37298;BME280;30517;51.932;4.278;2023-04-16T00:13:17;102368.69;;;13.66;56.70
37298;BME280;30517;51.932;4.278;2023-04-16T00:15:58;102411.22;;;13.79;56.66
37298;BME280;30517;51.932;4.278;2023-04-16T00:18:40;102281.53;;;13.12;56.54
37298;BME280;30517;51.932;4.278;2023-04-16T00:21:21;102362.41;;;13.57;56.84
37298;BME280;30517;51.932;4.278;2023-04-16T00:24:02;102395.28;;;13.76;56.44
37298;BME280;30517;51.932;4.278;2023-04-16T00:26:43;102381.97;;;13.66;56.66
37298;BME280;30517;51.932;4.278;2023-04-16T00:29:25;102382.75;;;13.59;56.83
37298;BME280;30517;51.932;4.278;2023-04-16T00:32:07;102393.47;;;13.71;56.46
37298;BME280;30517;51.932;4.278;2023-04-16T00:34:48;102386.41;;;13.70;56.68
37298;BME280;30517;51.932;4.278;2023-04-16T00:37:29;102389.03;;;13.69;56.48
37298;BME280;30517;51.932;4.278;2023-04-16T00:40:10;102358.84;;;13.53;56.97
37298;BME280;30517;51.932;4.278;2023-04-16T00:42:51;102377.53;;;13.67;56.91
37298;BME280;30517;51.932;4.278;2023-04-16T00:45:32;102354.31;;;13.44;56.76
37298;BME280;30517;51.932;4.278;2023-04-16T00:48:13;102396.97;;;13.64;56.95
37298;BME280;30517;51.932;4.278;2023-04-16T00:50:54;102401.34;;;13.62;56.65
37298;BME280;30517;51.932;4.278;2023-04-16T00:53:35;102343.63;;;13.34;56.99
37298;BME280;30517;51.932;4.278;2023-04-16T00:56:16;102403.09;;;13.60;57.01
37298;BME280;30517;51.932;4.278;2023-04-16T00:58:58;102378.25;;;13.52;56.57
37298;BME280;30517;51.932;4.278;2023-04-16T01:01:39;102397.75;;;13.57;56.38
37298;BME280;30517;51.932;4.278;2023-04-16T01:04:20;102362.22;;;13.37;56.72
37298;BME280;30517;51.932;4.278;2023-04-16T01:07:03;102401.28;;;13.56;56.86
37298;BME280;30517;51.932;4.278;2023-04-16T01:09:44;102343.56;;;13.26;56.27
37298;BME280;30517;51.932;4.278;2023-04-16T01:12:25;102401.16;;;13.44;56.65
37298;BME280;30517;51.932;4.278;2023-04-16T01:15:06;102393.28;;;13.52;56.68
37298;BME280;30517;51.932;4.278;2023-04-16T01:17:47;102410.97;;;13.51;57.04
37298;BME280;30517;51.932;4.278;2023-04-16T01:20:28;102365.66;;;13.26;56.27
37298;BME280;30517;51.932;4.278;2023-04-16T01:23:09;102374.53;;;13.32;56.65
37298;BME280;30517;51.932;4.278;2023-04-16T01:25:51;102400.31;;;13.46;56.55
37298;BME280;30517;51.932;4.278;2023-04-16T01:28:31;102374.41;;;13.24;56.71
37298;BME280;30517;51.932;4.278;2023-04-16T01:31:12;102399.38;;;13.43;56.84
37298;BME280;30517;51.932;4.278;2023-04-16T01:33:53;102398.50;;;13.42;56.94
37298;BME280;30517;51.932;4.278;2023-04-16T01:36:34;102385.19;;;13.38;56.92
37298;BME280;30517;51.932;4.278;2023-04-16T01:39:15;102405.53;;;13.40;56.51
37298;BME280;30517;51.932;4.278;2023-04-16T01:41:58;102360.13;;;13.11;56.45
37298;BME280;30517;51.932;4.278;2023-04-16T01:44:39;102405.50;;;13.39;56.74
37298;BME280;30517;51.932;4.278;2023-04-16T01:47:20;102417.00;;;13.38;56.82
37298;BME280;30517;51.932;4.278;2023-04-16T01:50:02;102377.91;;;13.21;56.41
37298;BME280;30517;51.932;4.278;2023-04-16T01:52:43;102401.06;;;13.36;56.49
37298;BME280;30517;51.932;4.278;2023-04-16T01:55:24;102405.50;;;13.34;56.63
37298;BME280;30517;51.932;4.278;2023-04-16T01:58:06;102400.91;;;13.25;56.88
37298;BME280;30517;51.932;4.278;2023-04-16T02:00:49;102405.47;;;13.33;56.88
37298;BME280;30517;51.932;4.278;2023-04-16T02:03:30;102406.34;;;13.32;56.68
37298;BME280;30517;51.932;4.278;2023-04-16T02:06:11;102344.91;;;12.93;56.63
37298;BME280;30517;51.932;4.278;2023-04-16T02:08:54;102411.59;;;13.28;56.59
37298;BME280;30517;51.932;4.278;2023-04-16T02:11:35;102375.09;;;13.09;56.69
37298;BME280;30517;51.932;4.278;2023-04-16T02:14:16;102359.94;;;12.96;56.50
37298;BME280;30517;51.932;4.278;2023-04-16T02:16:57;102342.13;;;12.82;56.48
37298;BME280;30517;51.932;4.278;2023-04-16T02:19:38;102389.22;;;13.05;56.50
37298;BME280;30517;51.932;4.278;2023-04-16T02:22:18;102407.84;;;13.14;56.76
37298;BME280;30517;51.932;4.278;2023-04-16T02:24:59;102397.22;;;13.10;56.52
37298;BME280;30517;51.932;4.278;2023-04-16T02:27:40;102406.09;;;13.15;56.87
37298;BME280;30517;51.932;4.278;2023-04-16T02:30:21;102369.69;;;12.97;56.96
37298;BME280;30517;51.932;4.278;2023-04-16T02:33:05;102413.22;;;13.20;56.79
37298;BME280;30517;51.932;4.278;2023-04-16T02:35:46;102407.84;;;13.13;56.68
37298;BME280;30517;51.932;4.278;2023-04-16T02:38:27;102381.94;;;12.90;56.77
37298;BME280;30517;51.932;4.278;2023-04-16T02:41:08;102390.91;;;13.00;56.87
37298;BME280;30517;51.932;4.278;2023-04-16T02:43:49;102426.44;;;13.16;56.75
37298;BME280;30517;51.932;4.278;2023-04-16T02:46:30;102421.13;;;13.16;56.94
37298;BME280;30517;51.932;4.278;2023-04-16T02:49:11;102390.03;;;13.01;56.58
37298;BME280;30517;51.932;4.278;2023-04-16T02:51:52;102418.44;;;13.14;56.66
37298;BME280;30517;51.932;4.278;2023-04-16T02:54:32;102393.53;;;12.98;57.25
37298;BME280;30517;51.932;4.278;2023-04-16T02:57:13;102390.00;;;12.96;57.08
37298;BME280;30517;51.932;4.278;2023-04-16T02:59:54;102402.41;;;13.02;56.85
37298;BME280;30517;51.932;4.278;2023-04-16T03:02:35;102380.19;;;12.89;57.04
37298;BME280;30517;51.932;4.278;2023-04-16T03:05:16;102269.03;;;12.24;56.70
37298;BME280;30517;51.932;4.278;2023-04-16T03:07:56;102421.91;;;13.07;56.79
37298;BME280;30517;51.932;4.278;2023-04-16T03:10:37;102401.44;;;12.95;56.50
37298;BME280;30517;51.932;4.278;2023-04-16T03:13:18;102429.88;;;13.07;56.69
37298;BME280;30517;51.932;4.278;2023-04-16T03:15:59;102428.94;;;13.05;57.26
37298;BME280;30517;51.932;4.278;2023-04-16T03:18:40;102412.00;;;12.92;56.73
37298;BME280;30517;51.932;4.278;2023-04-16T03:21:21;102428.03;;;13.03;56.52
37298;BME280;30517;51.932;4.278;2023-04-16T03:24:01;102384.41;;;12.75;56.80
37298;BME280;30517;51.932;4.278;2023-04-16T03:26:42;102409.28;;;12.88;56.83
37298;BME280;30517;51.932;4.278;2023-04-16T03:29:24;102438.59;;;13.01;57.21
37298;BME280;30517;51.932;4.278;2023-04-16T03:32:06;102385.22;;;12.71;56.91
37298;BME280;30517;51.932;4.278;2023-04-16T03:34:46;102426.22;;;13.00;57.40
37298;BME280;30517;51.932;4.278;2023-04-16T03:37:27;102391.56;;;12.82;57.08
37298;BME280;30517;51.932;4.278;2023-04-16T03:40:08;102431.50;;;12.97;56.59
37298;BME280;30517;51.932;4.278;2023-04-16T03:42:49;102402.13;;;12.80;57.60
37298;BME280;30517;51.932;4.278;2023-04-16T03:45:30;102389.72;;;12.76;56.52
37298;BME280;30517;51.932;4.278;2023-04-16T03:48:11;102427.91;;;12.94;57.01
37298;BME280;30517;51.932;4.278;2023-04-16T03:50:52;102402.13;;;12.80;57.22
37298;BME280;30517;51.932;4.278;2023-04-16T03:53:33;102392.31;;;12.73;56.66
37298;BME280;30517;51.932;4.278;2023-04-16T03:56:13;102412.78;;;12.85;57.23
37298;BME280;30517;51.932;4.278;2023-04-16T03:58:54;102377.13;;;12.60;57.16
37298;BME280;30517;51.932;4.278;2023-04-16T04:01:35;102422.47;;;12.84;56.72
37298;BME280;30517;51.932;4.278;2023-04-16T04:04:16;102396.66;;;12.67;57.26
37298;BME280;30517;51.932;4.278;2023-04-16T04:06:56;102409.13;;;12.75;57.19
37298;BME280;30517;51.932;4.278;2023-04-16T04:09:37;102334.25;;;12.23;57.52
37298;BME280;30517;51.932;4.278;2023-04-16T04:12:18;102441.94;;;12.87;56.75
37298;BME280;30517;51.932;4.278;2023-04-16T04:14:59;102409.16;;;12.78;57.08
37298;BME280;30517;51.932;4.278;2023-04-16T04:17:40;102430.47;;;12.86;56.81
37298;BME280;30517;51.932;4.278;2023-04-16T04:20:21;102450.75;;;12.86;57.08
37298;BME280;30517;51.932;4.278;2023-04-16T04:23:02;102388.56;;;12.57;57.12
37298;BME280;30517;51.932;4.278;2023-04-16T04:25:43;102413.44;;;12.69;56.97
37298;BME280;30517;51.932;4.278;2023-04-16T04:28:24;102428.66;;;12.83;56.80
37298;BME280;30517;51.932;4.278;2023-04-16T04:31:04;102432.16;;;12.82;57.47
37298;BME280;30517;51.932;4.278;2023-04-16T04:33:45;102439.09;;;12.73;57.00
37298;BME280;30517;51.932;4.278;2023-04-16T04:36:26;102436.56;;;12.80;57.30
37298;BME280;30517;51.932;4.278;2023-04-16T04:39:07;102394.66;;;12.50;57.00
37298;BME280;30517;51.932;4.278;2023-04-16T04:41:47;102385.97;;;12.59;56.79
37298;BME280;30517;51.932;4.278;2023-04-16T04:44:28;102434.75;;;12.79;57.01
37298;BME280;30517;51.932;4.278;2023-04-16T04:47:09;102400.00;;;12.55;56.54
37298;BME280;30517;51.932;4.278;2023-04-16T04:49:51;102386.66;;;12.47;56.78
37298;BME280;30517;51.932;4.278;2023-04-16T04:52:32;102445.31;;;12.76;56.98
37298;BME280;30517;51.932;4.278;2023-04-16T04:55:13;102441.78;;;12.76;57.59
37298;BME280;30517;51.932;4.278;2023-04-16T04:57:55;102444.41;;;12.74;57.19
37298;BME280;30517;51.932;4.278;2023-04-16T05:00:35;102435.53;;;12.69;57.20
37298;BME280;30517;51.932;4.278;2023-04-16T05:03:20;102438.09;;;12.66;56.79
37298;BME280;30517;51.932;4.278;2023-04-16T05:06:01;102462.03;;;12.72;56.99
37298;BME280;30517;51.932;4.278;2023-04-16T05:08:45;102417.50;;;12.44;56.79
37298;BME280;30517;51.932;4.278;2023-04-16T05:11:26;102428.28;;;12.56;56.63
37298;BME280;30517;51.932;4.278;2023-04-16T05:14:06;102438.06;;;12.63;57.10
37298;BME280;30517;51.932;4.278;2023-04-16T05:16:48;102423.78;;;12.52;56.81
37298;BME280;30517;51.932;4.278;2023-04-16T05:19:29;102440.66;;;12.58;57.33
37298;BME280;30517;51.932;4.278;2023-04-16T05:22:09;102453.09;;;12.66;57.90
37298;BME280;30517;51.932;4.278;2023-04-16T05:24:51;102463.72;;;12.67;57.16
37298;BME280;30517;51.932;4.278;2023-04-16T05:27:32;102440.66;;;12.60;56.42
37298;BME280;30517;51.932;4.278;2023-04-16T05:30:13;102446.81;;;12.57;56.72
37298;BME280;30517;51.932;4.278;2023-04-16T05:32:54;102470.72;;;12.62;57.21
37298;BME280;30517;51.932;4.278;2023-04-16T05:35:35;102470.75;;;12.65;57.27
37298;BME280;30517;51.932;4.278;2023-04-16T05:38:15;102485.75;;;12.65;57.43
37298;BME280;30517;51.932;4.278;2023-04-16T05:40:57;102431.44;;;12.33;57.59
37298;BME280;30517;51.932;4.278;2023-04-16T05:43:38;102470.63;;;12.56;56.90
37298;BME280;30517;51.932;4.278;2023-04-16T05:46:18;102482.19;;;12.62;57.25
37298;BME280;30517;51.932;4.278;2023-04-16T05:48:59;102427.03;;;12.34;57.09
37298;BME280;30517;51.932;4.278;2023-04-16T05:51:40;102415.38;;;12.21;57.17
37298;BME280;30517;51.932;4.278;2023-04-16T05:54:21;102478.63;;;12.60;57.43
37298;BME280;30517;51.932;4.278;2023-04-16T05:57:02;102475.97;;;12.59;57.75
37298;BME280;30517;51.932;4.278;2023-04-16T05:59:43;102440.28;;;12.35;57.28
37298;BME280;30517;51.932;4.278;2023-04-16T06:02:24;102480.28;;;12.55;56.92
37298;BME280;30517;51.932;4.278;2023-04-16T06:05:05;102481.22;;;12.57;57.60
37298;BME280;30517;51.932;4.278;2023-04-16T06:07:46;102494.44;;;12.57;57.31
37298;BME280;30517;51.932;4.278;2023-04-16T06:10:27;102472.28;;;12.49;57.59
37298;BME280;30517;51.932;4.278;2023-04-16T06:13:09;102482.97;;;12.57;57.60
37298;BME280;30517;51.932;4.278;2023-04-16T06:15:50;102443.78;;;12.33;57.20
37298;BME280;30517;51.932;4.278;2023-04-16T06:18:31;102424.22;;;12.22;57.69
37298;BME280;30517;51.932;4.278;2023-04-16T06:21:15;102462.41;;;12.39;57.62
37298;BME280;30517;51.932;4.278;2023-04-16T06:23:56;102500.59;;;12.55;57.25
37298;BME280;30517;51.932;4.278;2023-04-16T06:26:37;102490.75;;;12.46;57.83
37298;BME280;30517;51.932;4.278;2023-04-16T06:29:17;102425.78;;;12.12;57.28
37298;BME280;30517;51.932;4.278;2023-04-16T06:31:58;102495.25;;;12.52;57.32
37298;BME280;30517;51.932;4.278;2023-04-16T06:34:39;102466.75;;;12.35;57.14
37298;BME280;30517;51.932;4.278;2023-04-16T06:37:20;102498.78;;;12.51;58.00
37298;BME280;30517;51.932;4.278;2023-04-16T06:40:01;102452.50;;;12.27;57.53
37298;BME280;30517;51.932;4.278;2023-04-16T06:42:42;102503.19;;;12.50;57.75
37298;BME280;30517;51.932;4.278;2023-04-16T06:45:23;102498.72;;;12.49;57.61
37298;BME280;30517;51.932;4.278;2023-04-16T06:48:04;102501.38;;;12.49;58.04
37298;BME280;30517;51.932;4.278;2023-04-16T06:50:45;102507.41;;;12.40;57.25
37298;BME280;30517;51.932;4.278;2023-04-16T06:53:25;102498.56;;;12.38;57.92
37298;BME280;30517;51.932;4.278;2023-04-16T06:56:06;102457.66;;;12.18;58.27
37298;BME280;30517;51.932;4.278;2023-04-16T06:58:49;102495.06;;;12.39;58.12
37298;BME280;30517;51.932;4.278;2023-04-16T07:01:30;102519.81;;;12.45;57.38
37298;BME280;30517;51.932;4.278;2023-04-16T07:04:11;102504.81;;;12.44;57.23
37298;BME280;30517;51.932;4.278;2023-04-16T07:06:52;102523.34;;;12.44;58.15
37298;BME280;30517;51.932;4.278;2023-04-16T07:09:33;102500.34;;;12.39;57.71
37298;BME280;30517;51.932;4.278;2023-04-16T07:12:13;102499.44;;;12.39;57.65
37298;BME280;30517;51.932;4.278;2023-04-16T07:14:55;102498.50;;;12.35;57.47
37298;BME280;30517;51.932;4.278;2023-04-16T07:17:35;102518.97;;;12.46;57.50
37298;BME280;30517;51.932;4.278;2023-04-16T07:20:16;102485.09;;;12.25;57.37
37298;BME280;30517;51.932;4.278;2023-04-16T07:22:57;102520.69;;;12.44;58.04
37298;BME280;30517;51.932;4.278;2023-04-16T07:25:38;102513.50;;;12.36;57.23
37298;BME280;30517;51.932;4.278;2023-04-16T07:28:20;102517.97;;;12.39;57.47
37298;BME280;30517;51.932;4.278;2023-04-16T07:31:01;102519.72;;;12.38;57.02
37298;BME280;30517;51.932;4.278;2023-04-16T07:33:42;102529.53;;;12.43;57.29
37298;BME280;30517;51.932;4.278;2023-04-16T07:36:23;102524.09;;;12.35;57.67
37298;BME280;30517;51.932;4.278;2023-04-16T07:39:06;102537.47;;;12.43;58.08
37298;BME280;30517;51.932;4.278;2023-04-16T07:41:47;102547.13;;;12.42;57.78
37298;BME280;30517;51.932;4.278;2023-04-16T07:44:28;102497.41;;;12.21;57.78
37298;BME280;30517;51.932;4.278;2023-04-16T07:47:09;102534.78;;;12.41;57.76
37298;BME280;30517;51.932;4.278;2023-04-16T07:49:50;102491.03;;;12.10;58.02
37298;BME280;30517;51.932;4.278;2023-04-16T07:52:31;102546.25;;;12.42;57.54
37298;BME280;30517;51.932;4.278;2023-04-16T07:55:12;102549.78;;;12.42;57.48
37298;BME280;30517;51.932;4.278;2023-04-16T07:57:53;102548.00;;;12.41;57.86
37298;BME280;30517;51.932;4.278;2023-04-16T08:00:35;102521.22;;;12.21;57.79
37298;BME280;30517;51.932;4.278;2023-04-16T08:03:16;102526.56;;;12.26;57.86
37298;BME280;30517;51.932;4.278;2023-04-16T08:05:57;102531.84;;;12.24;58.13
37298;BME280;30517;51.932;4.278;2023-04-16T08:08:38;102553.28;;;12.39;58.01
37298;BME280;30517;51.932;4.278;2023-04-16T08:11:19;102559.47;;;12.40;58.15
37298;BME280;30517;51.932;4.278;2023-04-16T08:14:00;102552.41;;;12.40;58.34
37298;BME280;30517;51.932;4.278;2023-04-16T08:16:41;102560.22;;;12.33;58.35
37298;BME280;30517;51.932;4.278;2023-04-16T08:19:21;102550.50;;;12.32;58.34
37298;BME280;30517;51.932;4.278;2023-04-16T08:22:02;102558.44;;;12.33;58.46
37298;BME280;30517;51.932;4.278;2023-04-16T08:24:43;102553.94;;;12.28;58.34
37298;BME280;30517;51.932;4.278;2023-04-16T08:27:24;102573.53;;;12.39;58.28
37298;BME280;30517;51.932;4.278;2023-04-16T08:30:06;102581.47;;;12.39;58.19
37298;BME280;30517;51.932;4.278;2023-04-16T08:32:47;102577.09;;;12.39;58.23
37298;BME280;30517;51.932;4.278;2023-04-16T08:35:28;102594.75;;;12.40;58.17
37298;BME280;30517;51.932;4.278;2023-04-16T08:38:08;102545.84;;;12.20;57.99
37298;BME280;30517;51.932;4.278;2023-04-16T08:40:49;102559.22;;;12.26;57.95
37298;BME280;30517;51.932;4.278;2023-04-16T08:43:36;102577.09;;;12.39;58.12
37298;BME280;30517;51.932;4.278;2023-04-16T08:46:19;102594.75;;;12.40;58.68
37298;BME280;30517;51.932;4.278;2023-04-16T08:49:05;102410.31;;;11.36;57.97
37298;BME280;30517;51.932;4.278;2023-04-16T08:51:49;102333.78;;;10.94;58.08
37298;BME280;30517;51.932;4.278;2023-04-16T08:54:42;102557.47;;;12.27;58.75
37298;BME280;30517;51.932;4.278;2023-04-16T08:57:29;102573.44;;;12.31;58.25
37298;BME280;30517;51.932;4.278;2023-04-16T09:00:15;102584.13;;;12.37;57.69
37298;BME280;30517;51.932;4.278;2023-04-16T09:02:56;102572.31;;;12.20;58.58
37298;BME280;30517;51.932;4.278;2023-04-16T09:05:38;102575.22;;;12.34;58.55
37298;BME280;30517;51.932;4.278;2023-04-16T09:08:19;102596.50;;;12.40;57.84
37298;BME280;30517;51.932;4.278;2023-04-16T09:11:00;102546.69;;;12.16;58.45
37298;BME280;30517;51.932;4.278;2023-04-16T09:13:41;102548.44;;;12.15;58.75
37298;BME280;30517;51.932;4.278;2023-04-16T09:16:22;102518.03;;;11.93;58.90
37298;BME280;30517;51.932;4.278;2023-04-16T09:19:04;102562.56;;;12.16;58.68
37298;BME280;30517;51.932;4.278;2023-04-16T09:21:46;102591.03;;;12.31;58.68
37298;BME280;30517;51.932;4.278;2023-04-16T09:24:27;102610.63;;;12.42;58.26
37298;BME280;30517;51.932;4.278;2023-04-16T09:27:08;102601.72;;;12.35;58.40
37298;BME280;30517;51.932;4.278;2023-04-16T09:29:50;102607.94;;;12.37;58.84
37298;BME280;30517;51.932;4.278;2023-04-16T09:32:31;102607.88;;;12.36;58.61
37298;BME280;30517;51.932;4.278;2023-04-16T09:35:13;102606.84;;;12.26;58.71
37298;BME280;30517;51.932;4.278;2023-04-16T09:37:56;102618.56;;;12.42;58.31
37298;BME280;30517;51.932;4.278;2023-04-16T09:40:37;102625.69;;;12.43;58.78
37298;BME280;30517;51.932;4.278;2023-04-16T09:43:19;102627.44;;;12.43;59.20
37298;BME280;30517;51.932;4.278;2023-04-16T09:46:03;102593.47;;;12.20;58.33
37298;BME280;30517;51.932;4.278;2023-04-16T09:48:44;102630.09;;;12.44;58.44
37298;BME280;30517;51.932;4.278;2023-04-16T09:51:25;102619.34;;;12.36;58.85
37298;BME280;30517;51.932;4.278;2023-04-16T09:54:07;102601.59;;;12.29;58.43
37298;BME280;30517;51.932;4.278;2023-04-16T09:56:48;102638.06;;;12.46;58.53
37298;BME280;30517;51.932;4.278;2023-04-16T09:59:29;102638.91;;;12.45;58.38
37298;BME280;30517;51.932;4.278;2023-04-16T10:02:13;102640.66;;;12.43;58.82
37298;BME280;30517;51.932;4.278;2023-04-16T10:04:54;102627.28;;;12.35;58.91
37298;BME280;30517;51.932;4.278;2023-04-16T10:07:36;102650.38;;;12.44;58.07
37298;BME280;30517;51.932;4.278;2023-04-16T10:10:17;102662.75;;;12.45;58.84
37298;BME280;30517;51.932;4.278;2023-04-16T10:12:58;102630.66;;;12.28;58.54
37298;BME280;30517;51.932;4.278;2023-04-16T10:15:39;102634.34;;;12.34;59.00
37298;BME280;30517;51.932;4.278;2023-04-16T10:18:21;102634.28;;;12.31;58.85
37298;BME280;30517;51.932;4.278;2023-04-16T10:21:02;102647.63;;;12.37;58.71
37298;BME280;30517;51.932;4.278;2023-04-16T10:23:43;102653.91;;;12.43;59.49
37298;BME280;30517;51.932;4.278;2023-04-16T10:26:25;102664.53;;;12.46;58.80
37298;BME280;30517;51.932;4.278;2023-04-16T10:29:07;102656.56;;;12.44;58.74
37298;BME280;30517;51.932;4.278;2023-04-16T10:31:49;102657.44;;;12.43;59.00
37298;BME280;30517;51.932;4.278;2023-04-16T10:34:31;102636.88;;;12.30;58.78
37298;BME280;30517;51.932;4.278;2023-04-16T10:37:14;102621.75;;;12.21;58.64
37298;BME280;30517;51.932;4.278;2023-04-16T10:39:58;102653.03;;;12.44;59.00
37298;BME280;30517;51.932;4.278;2023-04-16T10:42:39;102656.56;;;12.44;58.70
37298;BME280;30517;51.932;4.278;2023-04-16T10:45:25;102619.94;;;12.20;58.86
37298;BME280;30517;51.932;4.278;2023-04-16T10:48:06;102635.19;;;12.32;58.58
37298;BME280;30517;51.932;4.278;2023-04-16T10:50:55;102652.03;;;12.38;58.55
37298;BME280;30517;51.932;4.278;2023-04-16T10:53:36;102667.19;;;12.46;58.72
37298;BME280;30517;51.932;4.278;2023-04-16T10:56:26;102660.13;;;12.46;58.67
37298;BME280;30517;51.932;4.278;2023-04-16T10:59:09;102645.81;;;12.36;58.80
37298;BME280;30517;51.932;4.278;2023-04-16T11:01:54;102653.91;;;12.43;58.89
37298;BME280;30517;51.932;4.278;2023-04-16T11:04:37;102665.47;;;12.48;58.66
37298;BME280;30517;51.932;4.278;2023-04-16T11:07:20;102670.75;;;12.48;59.68
37298;BME280;30517;51.932;4.278;2023-04-16T11:10:05;102654.75;;;12.42;58.54
37298;BME280;30517;51.932;4.278;2023-04-16T11:12:46;102649.44;;;12.40;59.16
37298;BME280;30517;51.932;4.278;2023-04-16T11:15:27;102665.44;;;12.46;58.64
37298;BME280;30517;51.932;4.278;2023-04-16T11:18:10;102661.03;;;12.47;58.50
37298;BME280;30517;51.932;4.278;2023-04-16T11:20:51;102649.44;;;12.42;59.04
37298;BME280;30517;51.932;4.278;2023-04-16T11:23:47;102651.25;;;12.44;58.99
37298;BME280;30517;51.932;4.278;2023-04-16T11:26:28;102655.78;;;12.48;59.18
37298;BME280;30517;51.932;4.278;2023-04-16T11:29:12;102656.66;;;12.49;59.44
37298;BME280;30517;51.932;4.278;2023-04-16T11:31:54;102655.84;;;12.53;58.62
37298;BME280;30517;51.932;4.278;2023-04-16T11:34:43;102652.16;;;12.43;58.89
37298;BME280;30517;51.932;4.278;2023-04-16T11:37:32;102650.38;;;12.44;59.11
37298;BME280;30517;51.932;4.278;2023-04-16T11:40:13;102629.88;;;12.33;58.45
37298;BME280;30517;51.932;4.278;2023-04-16T11:42:54;102624.50;;;12.27;59.05
37298;BME280;30517;51.932;4.278;2023-04-16T11:45:35;102633.41;;;12.34;59.03
37298;BME280;30517;51.932;4.278;2023-04-16T11:48:16;102577.28;;;12.02;59.23
37298;BME280;30517;51.932;4.278;2023-04-16T11:50:57;102662.00;;;12.50;59.81
37298;BME280;30517;51.932;4.278;2023-04-16T11:53:51;102655.78;;;12.50;59.16
37298;BME280;30517;51.932;4.278;2023-04-16T11:56:34;102664.66;;;12.52;59.27
37298;BME280;30517;51.932;4.278;2023-04-16T11:59:21;102655.84;;;12.53;58.91
37298;BME280;30517;51.932;4.278;2023-04-16T12:02:02;102665.56;;;12.54;58.66
37298;BME280;30517;51.932;4.278;2023-04-16T12:04:43;102651.41;;;12.52;59.12
37298;BME280;30517;51.932;4.278;2023-04-16T12:07:23;102659.31;;;12.49;59.33
37298;BME280;30517;51.932;4.278;2023-04-16T12:10:06;102665.56;;;12.54;59.30
37298;BME280;30517;51.932;4.278;2023-04-16T12:12:47;102630.03;;;12.39;58.94
37298;BME280;30517;51.932;4.278;2023-04-16T12:15:42;102392.88;;;10.61;59.17
37298;BME280;30517;51.932;4.278;2023-04-16T12:18:24;102666.56;;;12.59;59.46
37298;BME280;30517;51.932;4.278;2023-04-16T12:21:08;102663.91;;;12.60;59.13
37298;BME280;30517;51.932;4.278;2023-04-16T12:23:52;102662.03;;;12.53;59.04
37298;BME280;30517;51.932;4.278;2023-04-16T12:26:46;102654.13;;;12.55;58.22
37298;BME280;30517;51.932;4.278;2023-04-16T12:29:28;102665.72;;;12.63;58.77
37298;BME280;30517;51.932;4.278;2023-04-16T12:32:21;102671.03;;;12.63;58.32
37298;BME280;30517;51.932;4.278;2023-04-16T12:35:02;102670.25;;;12.67;59.55
37298;BME280;30517;51.932;4.278;2023-04-16T12:37:44;102631.03;;;12.46;59.27
37298;BME280;30517;51.932;4.278;2023-04-16T12:40:25;102612.34;;;12.38;58.71
37298;BME280;30517;51.932;4.278;2023-04-16T12:43:06;102668.53;;;12.69;58.69
37298;BME280;30517;51.932;4.278;2023-04-16T12:45:50;102661.41;;;12.68;58.76
37298;BME280;30517;51.932;4.278;2023-04-16T12:48:31;102654.25;;;12.62;58.99
37298;BME280;30517;51.932;4.278;2023-04-16T12:51:14;102629.25;;;12.47;58.52
37298;BME280;30517;51.932;4.278;2023-04-16T12:53:55;102665.78;;;12.65;58.61
37298;BME280;30517;51.932;4.278;2023-04-16T12:56:36;102664.88;;;12.64;58.77
37298;BME280;30517;51.932;4.278;2023-04-16T12:59:17;102620.38;;;12.43;58.73
37298;BME280;30517;51.932;4.278;2023-04-16T13:01:59;102678.34;;;12.76;59.00
37298;BME280;30517;51.932;4.278;2023-04-16T13:04:41;102665.00;;;12.72;58.64
37298;BME280;30517;51.932;4.278;2023-04-16T13:07:23;102662.34;;;12.72;59.06
37298;BME280;30517;51.932;4.278;2023-04-16T13:10:06;102674.00;;;12.81;58.71
37298;BME280;30517;51.932;4.278;2023-04-16T13:12:47;102677.53;;;12.80;58.84
37298;BME280;30517;51.932;4.278;2023-04-16T13:15:27;102663.28;;;12.72;58.61
37298;BME280;30517;51.932;4.278;2023-04-16T13:18:08;102674.94;;;12.85;58.44
37298;BME280;30517;51.932;4.278;2023-04-16T13:20:49;102674.09;;;12.86;58.64
37298;BME280;30517;51.932;4.278;2023-04-16T13:23:30;102671.31;;;12.78;58.50
37298;BME280;30517;51.932;4.278;2023-04-16T13:26:11;102543.09;;;12.12;58.70
37298;BME280;30517;51.932;4.278;2023-04-16T13:28:55;102671.50;;;12.91;58.65
37298;BME280;30517;51.932;4.278;2023-04-16T13:31:36;102667.13;;;12.91;58.61
37298;BME280;30517;51.932;4.278;2023-04-16T13:34:17;102669.78;;;12.93;58.85
37298;BME280;30517;51.932;4.278;2023-04-16T13:36:58;102674.25;;;12.94;58.33
37298;BME280;30517;51.932;4.278;2023-04-16T13:39:39;102599.41;;;12.54;58.54
37298;BME280;30517;51.932;4.278;2023-04-16T13:42:20;102667.22;;;12.97;58.56
37298;BME280;30517;51.932;4.278;2023-04-16T13:45:01;102647.63;;;12.86;58.54
37298;BME280;30517;51.932;4.278;2023-04-16T13:47:42;102627.97;;;12.73;58.17
37298;BME280;30517;51.932;4.278;2023-04-16T13:50:23;102658.41;;;12.97;58.54
37298;BME280;30517;51.932;4.278;2023-04-16T13:53:04;102651.16;;;12.87;58.25
37298;BME280;30517;51.932;4.278;2023-04-16T13:55:45;102635.13;;;12.79;58.79
37298;BME280;30517;51.932;4.278;2023-04-16T13:58:27;102658.41;;;12.97;58.76
37298;BME280;30517;51.932;4.278;2023-04-16T14:01:08;102658.31;;;12.92;58.59
37298;BME280;30517;51.932;4.278;2023-04-16T14:03:49;102657.56;;;12.99;58.34
37298;BME280;30517;51.932;4.278;2023-04-16T14:06:30;102646.84;;;12.93;58.21